Time,TemperatureF,DewpointF,PressureIn,WindDirection,WindDirectionDegrees,WindSpeedMPH,WindSpeedGustMPH,Humidity,HourlyPrecipIn,Conditions,Clouds,dailyrainin,SoftwareType,DateUTC
2013-06-14 00:01:00,53.1,52.5,29.60,East,90,0.0,0.7,98,0.04,,,0.01,pywws,2013-06-14 04:01:00,
2013-06-14 00:02:00,53.1,52.5,29.60,East,90,0.0,0.7,98,0.04,,,0.01,pywws,2013-06-14 04:02:00,
2013-06-14 00:03:00,53.1,52.5,29.60,East,90,0.0,0.7,98,0.04,,,0.01,pywws,2013-06-14 04:03:00,
2013-06-14 00:07:00,53.1,52.5,29.61,West,270,0.7,1.6,98,0.05,,,0.02,pywws,2013-06-14 04:07:00,
2013-06-14 00:12:00,52.9,52.3,29.62,West,270,1.6,3.1,98,0.06,,,0.04,pywws,2013-06-14 04:12:00,
2013-06-14 00:18:00,52.9,52.3,29.62,North,0,0.7,2.2,98,0.07,,,0.05,pywws,2013-06-14 04:18:00,
2013-06-14 00:24:00,52.9,52.3,29.62,NW,315,0.0,1.6,98,0.08,,,0.06,pywws,2013-06-14 04:24:00,
2013-06-14 00:30:00,52.9,52.3,29.62,West,270,0.0,0.7,98,0.09,,,0.07,pywws,2013-06-14 04:30:00,
2013-06-14 00:35:00,52.7,52.2,29.62,NW,315,0.0,1.6,98,0.11,,,0.08,pywws,2013-06-14 04:35:00,
2013-06-14 00:41:00,52.5,52.0,29.62,NW,315,0.0,1.6,98,0.12,,,0.11,pywws,2013-06-14 04:41:00,
2013-06-14 00:47:00,52.5,52.0,29.63,North,0,0.0,1.6,98,0.13,,,0.12,pywws,2013-06-14 04:47:00,
2013-06-14 00:52:00,52.3,51.8,29.62,SW,225,0.7,1.6,98,0.13,,,0.13,pywws,2013-06-14 04:52:00,
2013-06-14 00:58:00,52.3,51.8,29.62,West,270,1.6,3.1,98,0.15,,,0.15,pywws,2013-06-14 04:58:00,
2013-06-14 01:03:00,52.3,51.8,29.62,SW,225,0.7,1.6,98,0.17,,,0.18,pywws,2013-06-14 05:03:00,
2013-06-14 01:09:00,52.3,51.8,29.63,NW,315,0.0,0.7,98,0.18,,,0.20,pywws,2013-06-14 05:09:00,
2013-06-14 01:15:00,52.2,51.6,29.63,West,270,0.0,0.7,98,0.18,,,0.21,pywws,2013-06-14 05:15:00,
2013-06-14 01:20:00,52.2,51.6,29.64,NW,315,0.0,0.7,98,0.19,,,0.24,pywws,2013-06-14 05:20:00,
2013-06-14 01:26:00,52.2,51.6,29.64,North,0,0.0,1.6,98,0.19,,,0.24,pywws,2013-06-14 05:26:00,
2013-06-14 01:31:00,52.3,51.8,29.64,NW,315,0.0,0.7,98,0.18,,,0.25,pywws,2013-06-14 05:31:00,
2013-06-14 01:37:00,52.2,51.6,29.65,North,0,0.0,0.7,98,0.17,,,0.26,pywws,2013-06-14 05:37:00,
2013-06-14 01:43:00,52.2,51.6,29.64,North,0,0.0,0.0,98,0.15,,,0.27,pywws,2013-06-14 05:43:00,
2013-06-14 01:48:00,52.2,51.6,29.65,NNW,338,0.0,0.7,98,0.15,,,0.28,pywws,2013-06-14 05:48:00,
2013-06-14 01:54:00,52.2,51.6,29.65,North,0,0.7,1.6,98,0.14,,,0.28,pywws,2013-06-14 05:54:00,
2013-06-14 02:00:00,52.2,51.6,29.65,North,0,0.0,0.0,98,0.12,,,0.28,pywws,2013-06-14 06:00:00,
2013-06-14 02:06:00,52.2,51.6,29.65,North,0,0.0,0.0,98,0.11,,,0.28,pywws,2013-06-14 06:06:00,
2013-06-14 02:11:00,52.2,51.6,29.65,NE,45,0.0,1.6,98,0.08,,,0.30,pywws,2013-06-14 06:11:00,
2013-06-14 02:17:00,52.2,51.6,29.65,North,0,0.7,2.2,98,0.08,,,0.31,pywws,2013-06-14 06:17:00,
2013-06-14 02:23:00,52.2,51.6,29.65,North,0,0.0,0.0,98,0.07,,,0.31,pywws,2013-06-14 06:23:00,
2013-06-14 02:28:00,52.2,51.6,29.66,North,0,0.0,1.6,98,0.07,,,0.31,pywws,2013-06-14 06:28:00,
2013-06-14 02:34:00,52.2,51.6,29.66,NE,45,0.0,0.7,98,0.07,,,0.32,pywws,2013-06-14 06:34:00,
2013-06-14 02:39:00,52.2,51.6,29.67,North,0,0.7,1.6,98,0.06,,,0.32,pywws,2013-06-14 06:39:00,
2013-06-14 02:45:00,52.2,51.6,29.67,North,0,0.0,1.6,98,0.06,,,0.33,pywws,2013-06-14 06:45:00,
2013-06-14 02:51:00,52.2,51.6,29.67,North,0,0.7,1.6,98,0.06,,,0.34,pywws,2013-06-14 06:51:00,
2013-06-14 02:56:00,52.0,51.4,29.67,NE,45,0.0,0.0,98,0.07,,,0.35,pywws,2013-06-14 06:56:00,
2013-06-14 03:02:00,52.0,51.4,29.67,East,90,0.0,0.7,98,0.08,,,0.37,pywws,2013-06-14 07:02:00,
2013-06-14 03:07:00,51.8,51.3,29.67,NW,315,0.7,2.2,98,0.08,,,0.38,pywws,2013-06-14 07:07:00,
2013-06-14 03:13:00,51.8,51.3,29.67,North,0,0.0,0.0,98,0.07,,,0.38,pywws,2013-06-14 07:13:00,
2013-06-14 03:19:00,51.6,51.3,29.67,North,0,0.7,1.6,99,0.07,,,0.38,pywws,2013-06-14 07:19:00,
2013-06-14 03:24:00,51.4,51.2,29.67,NW,315,0.7,1.6,99,0.08,,,0.39,pywws,2013-06-14 07:24:00,
2013-06-14 03:30:00,51.4,51.2,29.67,North,0,0.7,1.6,99,0.09,,,0.40,pywws,2013-06-14 07:30:00,
2013-06-14 03:35:00,51.3,51.0,29.67,North,0,1.6,3.1,99,0.08,,,0.40,pywws,2013-06-14 07:35:00,
2013-06-14 03:41:00,51.3,51.0,29.67,North,0,0.7,1.6,99,0.09,,,0.41,pywws,2013-06-14 07:41:00,
2013-06-14 03:47:00,51.1,50.8,29.67,North,0,0.0,1.6,99,0.08,,,0.41,pywws,2013-06-14 07:47:00,
2013-06-14 03:52:00,51.1,50.8,29.67,NE,45,0.7,1.6,99,0.06,,,0.41,pywws,2013-06-14 07:52:00,
2013-06-14 03:58:00,51.1,50.8,29.67,NW,315,0.7,1.6,99,0.06,,,0.43,pywws,2013-06-14 07:58:00,
2013-06-14 04:04:00,51.1,50.8,29.67,West,270,0.7,2.2,99,0.05,,,0.43,pywws,2013-06-14 08:04:00,
2013-06-14 04:10:00,50.9,50.6,29.67,SW,225,0.7,1.6,99,0.06,,,0.44,pywws,2013-06-14 08:10:00,
2013-06-14 04:15:00,50.9,50.6,29.66,West,270,0.0,1.6,99,0.07,,,0.45,pywws,2013-06-14 08:15:00,
2013-06-14 04:21:00,50.7,50.4,29.66,West,270,0.7,1.6,99,0.06,,,0.45,pywws,2013-06-14 08:21:00,
2013-06-14 04:27:00,50.7,50.4,29.66,West,270,0.7,2.2,99,0.08,,,0.47,pywws,2013-06-14 08:27:00,
2013-06-14 04:32:00,50.7,50.4,29.67,West,270,0.7,2.2,99,0.07,,,0.47,pywws,2013-06-14 08:32:00,
2013-06-14 04:38:00,50.7,50.4,29.67,NW,315,0.7,1.6,99,0.08,,,0.48,pywws,2013-06-14 08:38:00,
2013-06-14 04:43:00,50.7,50.4,29.68,NW,315,0.7,1.6,99,0.07,,,0.48,pywws,2013-06-14 08:43:00,
2013-06-14 04:49:00,50.9,50.6,29.69,North,0,1.6,2.2,99,0.08,,,0.50,pywws,2013-06-14 08:49:00,
2013-06-14 04:55:00,50.9,50.6,29.70,NW,315,0.7,1.6,99,0.07,,,0.50,pywws,2013-06-14 08:55:00,
2013-06-14 05:00:00,50.9,50.6,29.70,North,0,0.0,1.6,99,0.07,,,0.50,pywws,2013-06-14 09:00:00,
2013-06-14 05:06:00,50.9,50.6,29.71,North,0,0.7,1.6,99,0.07,,,0.50,pywws,2013-06-14 09:06:00,
2013-06-14 05:11:00,50.9,50.6,29.71,North,0,0.7,0.7,99,0.06,,,0.50,pywws,2013-06-14 09:11:00,
2013-06-14 05:17:00,50.9,50.6,29.71,NW,315,0.7,1.6,99,0.05,,,0.50,pywws,2013-06-14 09:17:00,
2013-06-14 05:23:00,50.9,50.6,29.70,North,0,0.7,1.6,99,0.02,,,0.50,pywws,2013-06-14 09:23:00,
2013-06-14 05:28:00,50.7,50.4,29.71,North,0,0.7,1.6,99,0.02,,,0.50,pywws,2013-06-14 09:28:00,
2013-06-14 05:34:00,50.9,50.6,29.70,NW,315,0.0,1.6,99,0.04,,,0.51,pywws,2013-06-14 09:34:00,
2013-06-14 05:39:00,50.9,50.6,29.71,NW,315,0.0,1.6,99,0.02,,,0.51,pywws,2013-06-14 09:39:00,
2013-06-14 05:45:00,50.9,50.6,29.71,East,90,0.0,0.7,99,0.02,,,0.51,pywws,2013-06-14 09:45:00,
2013-06-14 05:51:00,50.9,50.6,29.71,NE,45,0.0,1.6,99,0.01,,,0.51,pywws,2013-06-14 09:51:00,
2013-06-14 05:56:00,50.9,50.6,29.71,NW,315,0.7,3.1,99,0.01,,,0.51,pywws,2013-06-14 09:56:00,
2013-06-14 06:02:00,50.9,50.6,29.72,NW,315,0.0,0.0,99,0.01,,,0.51,pywws,2013-06-14 10:02:00,
2013-06-14 06:07:00,50.9,50.6,29.72,North,0,0.0,1.6,99,0.01,,,0.51,pywws,2013-06-14 10:07:00,
2013-06-14 06:13:00,50.9,50.6,29.72,NW,315,1.6,2.2,99,0.01,,,0.51,pywws,2013-06-14 10:13:00,
2013-06-14 06:19:00,50.9,50.6,29.72,North,0,0.0,0.0,99,0.01,,,0.51,pywws,2013-06-14 10:19:00,
2013-06-14 06:24:00,51.1,50.8,29.72,North,0,0.0,0.7,99,0.01,,,0.51,pywws,2013-06-14 10:24:00,
2013-06-14 06:30:00,51.1,50.8,29.72,East,90,0.0,1.6,99,0.01,,,0.51,pywws,2013-06-14 10:30:00,
2013-06-14 06:35:00,51.3,51.0,29.72,NE,45,0.0,0.7,99,0.00,,,0.51,pywws,2013-06-14 10:35:00,
2013-06-14 06:41:00,51.4,51.2,29.73,NW,315,0.7,2.2,99,0.00,,,0.51,pywws,2013-06-14 10:41:00,
2013-06-14 06:47:00,51.4,51.2,29.73,North,0,0.0,1.6,99,0.00,,,0.51,pywws,2013-06-14 10:47:00,
2013-06-14 06:52:00,51.4,51.2,29.74,NNE,22,0.7,1.6,99,0.00,,,0.51,pywws,2013-06-14 10:52:00,
2013-06-14 06:58:00,51.4,51.2,29.74,NNE,22,0.7,2.2,99,0.00,,,0.51,pywws,2013-06-14 10:58:00,
2013-06-14 07:03:00,51.4,51.2,29.74,West,270,0.0,1.6,99,0.00,,,0.51,pywws,2013-06-14 11:03:00,
2013-06-14 07:09:00,51.4,51.2,29.74,NW,315,0.0,0.0,99,0.00,,,0.51,pywws,2013-06-14 11:09:00,
2013-06-14 07:15:00,51.6,51.3,29.74,West,270,0.7,1.6,99,0.00,,,0.51,pywws,2013-06-14 11:15:00,
2013-06-14 07:20:00,51.8,51.3,29.74,North,0,0.0,0.7,98,0.00,,,0.51,pywws,2013-06-14 11:20:00,
2013-06-14 07:26:00,52.0,51.4,29.75,NW,315,0.0,0.7,98,0.00,,,0.51,pywws,2013-06-14 11:26:00,
2013-06-14 07:31:00,52.0,51.4,29.74,NW,315,0.0,0.0,98,0.00,,,0.51,pywws,2013-06-14 11:31:00,
2013-06-14 07:37:00,52.0,51.4,29.74,WNW,292,0.0,0.0,98,0.00,,,0.51,pywws,2013-06-14 11:37:00,
2013-06-14 07:43:00,52.2,51.6,29.74,North,0,0.7,1.6,98,0.00,,,0.51,pywws,2013-06-14 11:43:00,
2013-06-14 07:48:00,52.2,51.6,29.74,NW,315,0.7,1.6,98,0.00,,,0.51,pywws,2013-06-14 11:48:00,
2013-06-14 07:54:00,52.3,51.8,29.74,North,0,0.7,1.6,98,0.00,,,0.51,pywws,2013-06-14 11:54:00,
2013-06-14 07:59:00,52.5,52.0,29.74,North,0,0.0,0.7,98,0.00,,,0.51,pywws,2013-06-14 11:59:00,
2013-06-14 08:05:00,52.5,52.0,29.74,North,0,0.7,1.6,98,0.00,,,0.51,pywws,2013-06-14 12:05:00,
2013-06-14 08:11:00,52.9,52.3,29.75,North,0,0.0,1.6,98,0.00,,,0.51,pywws,2013-06-14 12:11:00,
2013-06-14 08:16:00,53.1,52.5,29.75,North,0,0.0,0.0,98,0.00,,,0.51,pywws,2013-06-14 12:16:00,
2013-06-14 08:22:00,53.1,52.5,29.75,NW,315,0.0,0.7,98,0.00,,,0.51,pywws,2013-06-14 12:22:00,
2013-06-14 08:27:00,53.2,52.7,29.76,NW,315,0.0,1.6,98,0.00,,,0.51,pywws,2013-06-14 12:27:00,
2013-06-14 08:33:00,53.2,52.7,29.76,North,0,0.0,0.0,98,0.00,,,0.51,pywws,2013-06-14 12:33:00,
2013-06-14 08:39:00,53.2,52.7,29.76,North,0,0.0,0.7,98,0.00,,,0.51,pywws,2013-06-14 12:39:00,
2013-06-14 08:44:00,53.2,52.7,29.76,NE,45,0.0,0.7,98,0.00,,,0.51,pywws,2013-06-14 12:44:00,
2013-06-14 08:50:00,53.6,52.8,29.77,NE,45,0.0,0.0,97,0.00,,,0.51,pywws,2013-06-14 12:50:00,
2013-06-14 08:55:00,53.6,52.8,29.76,NW,315,0.0,0.7,97,0.00,,,0.51,pywws,2013-06-14 12:55:00,
2013-06-14 09:01:00,54.0,53.1,29.76,North,0,0.0,0.7,97,0.00,,,0.51,pywws,2013-06-14 13:01:00,
2013-06-14 09:07:00,54.1,53.3,29.76,North,0,0.0,0.7,97,0.00,,,0.51,pywws,2013-06-14 13:07:00,
2013-06-14 09:12:00,54.3,53.5,29.77,NE,45,0.7,2.2,97,0.00,,,0.51,pywws,2013-06-14 13:12:00,
2013-06-14 09:18:00,54.5,53.7,29.78,North,0,0.0,0.7,97,0.00,,,0.51,pywws,2013-06-14 13:18:00,
2013-06-14 09:23:00,54.7,53.8,29.78,North,0,0.0,0.7,97,0.00,,,0.51,pywws,2013-06-14 13:23:00,
2013-06-14 09:29:00,54.7,53.8,29.78,North,0,0.0,0.7,97,0.00,,,0.51,pywws,2013-06-14 13:29:00,
2013-06-14 09:35:00,54.7,53.8,29.78,North,0,0.0,0.0,97,0.00,,,0.51,pywws,2013-06-14 13:35:00,
2013-06-14 09:40:00,54.9,54.0,29.79,NE,45,0.0,0.7,97,0.00,,,0.51,pywws,2013-06-14 13:40:00,
2013-06-14 09:46:00,55.0,54.2,29.79,NW,315,0.7,2.2,97,0.00,,,0.51,pywws,2013-06-14 13:46:00,
2013-06-14 09:51:00,55.2,54.4,29.80,NE,45,0.7,1.6,97,0.00,,,0.51,pywws,2013-06-14 13:51:00,
2013-06-14 09:57:00,55.6,55.3,29.80,NNE,22,0.7,1.6,99,0.00,,,0.51,pywws,2013-06-14 13:57:00,
2013-06-14 10:03:00,55.9,55.7,29.80,North,0,0.0,0.0,99,0.00,,,0.51,pywws,2013-06-14 14:03:00,
2013-06-14 10:08:00,56.3,56.0,29.80,NE,45,0.0,0.7,99,0.00,,,0.51,pywws,2013-06-14 14:08:00,
2013-06-14 10:14:00,56.7,56.1,29.80,North,0,0.0,0.7,98,0.00,,,0.51,pywws,2013-06-14 14:14:00,
2013-06-14 10:19:00,56.8,56.3,29.80,East,90,0.0,0.7,98,0.00,,,0.51,pywws,2013-06-14 14:19:00,
2013-06-14 10:25:00,57.2,56.4,29.80,North,0,0.0,0.0,97,0.00,,,0.51,pywws,2013-06-14 14:25:00,
2013-06-14 10:31:00,57.4,56.2,29.81,North,0,0.0,0.0,96,0.00,,,0.51,pywws,2013-06-14 14:31:00,
2013-06-14 10:36:00,57.7,56.6,29.81,North,0,0.7,1.6,96,0.00,,,0.51,pywws,2013-06-14 14:36:00,
2013-06-14 10:42:00,58.1,56.7,29.81,North,0,0.0,0.0,95,0.00,,,0.51,pywws,2013-06-14 14:42:00,
2013-06-14 10:47:00,58.5,56.7,29.81,North,0,0.0,0.0,94,0.00,,,0.51,pywws,2013-06-14 14:47:00,
2013-06-14 10:53:00,58.6,56.9,29.82,North,0,0.7,1.6,94,0.00,,,0.51,pywws,2013-06-14 14:53:00,
2013-06-14 10:59:00,58.6,56.3,29.82,North,0,0.0,0.0,92,0.00,,,0.51,pywws,2013-06-14 14:59:00,
2013-06-14 11:05:00,58.6,55.4,29.82,North,0,0.0,0.7,89,0.00,,,0.51,pywws,2013-06-14 15:05:00,
2013-06-14 11:11:00,58.6,55.1,29.83,North,0,0.0,0.0,88,0.00,,,0.51,pywws,2013-06-14 15:11:00,
2013-06-14 11:17:00,58.5,55.2,29.83,North,0,0.0,0.0,89,0.00,,,0.51,pywws,2013-06-14 15:17:00,
2013-06-14 11:23:00,58.5,55.2,29.83,North,0,0.0,0.0,89,0.00,,,0.51,pywws,2013-06-14 15:23:00,
2013-06-14 11:28:00,58.8,55.9,29.83,NW,315,0.7,1.6,90,0.00,,,0.51,pywws,2013-06-14 15:28:00,
2013-06-14 11:34:00,59.2,55.9,29.83,NE,45,0.0,1.6,89,0.00,,,0.51,pywws,2013-06-14 15:34:00,
2013-06-14 11:39:00,59.5,56.3,29.83,SW,225,0.0,0.7,89,0.00,,,0.51,pywws,2013-06-14 15:39:00,
2013-06-14 11:45:00,60.3,57.0,29.83,North,0,0.0,0.0,89,0.00,,,0.51,pywws,2013-06-14 15:45:00,
2013-06-14 11:51:00,61.0,57.1,29.83,NE,45,0.0,0.0,87,0.00,,,0.51,pywws,2013-06-14 15:51:00,
2013-06-14 11:56:00,60.8,56.6,29.83,NE,45,0.0,0.0,86,0.00,,,0.51,pywws,2013-06-14 15:56:00,
2013-06-14 12:02:00,61.2,56.6,29.83,NE,45,0.0,0.0,85,0.00,,,0.51,pywws,2013-06-14 16:02:00,
2013-06-14 12:07:00,61.5,57.0,29.83,NE,45,0.0,0.0,85,0.00,,,0.51,pywws,2013-06-14 16:07:00,
2013-06-14 12:13:00,61.7,56.8,29.83,East,90,0.0,0.7,84,0.00,,,0.51,pywws,2013-06-14 16:13:00,
2013-06-14 12:19:00,62.2,57.0,29.83,ESE,112,0.0,0.7,83,0.00,,,0.51,pywws,2013-06-14 16:19:00,
2013-06-14 12:24:00,63.0,56.7,29.83,West,270,0.7,2.2,80,0.00,,,0.51,pywws,2013-06-14 16:24:00,
2013-06-14 12:30:00,62.8,55.8,29.83,SW,225,0.0,0.0,78,0.00,,,0.51,pywws,2013-06-14 16:30:00,
2013-06-14 12:35:00,62.4,56.8,29.83,SW,225,0.0,0.0,82,0.00,,,0.51,pywws,2013-06-14 16:35:00,
2013-06-14 12:41:00,63.0,57.4,29.83,South,180,0.0,1.6,82,0.00,,,0.51,pywws,2013-06-14 16:41:00,
2013-06-14 12:47:00,63.9,57.2,29.82,SW,225,0.0,0.0,79,0.00,,,0.51,pywws,2013-06-14 16:47:00,
2013-06-14 12:52:00,64.4,58.1,29.83,NE,45,0.7,1.6,80,0.00,,,0.51,pywws,2013-06-14 16:52:00,
2013-06-14 12:58:00,64.9,59.0,29.83,NW,315,0.0,0.7,81,0.00,,,0.51,pywws,2013-06-14 16:58:00,
2013-06-14 13:03:00,66.0,58.2,29.83,North,0,0.0,0.7,76,0.00,,,0.51,pywws,2013-06-14 17:03:00,
2013-06-14 13:09:00,66.6,57.6,29.82,North,0,0.7,1.6,73,0.00,,,0.51,pywws,2013-06-14 17:09:00,
2013-06-14 13:15:00,66.6,55.7,29.83,South,180,2.2,3.8,68,0.00,,,0.51,pywws,2013-06-14 17:15:00,
2013-06-14 13:20:00,66.2,56.9,29.83,SW,225,0.7,3.1,72,0.00,,,0.51,pywws,2013-06-14 17:20:00,
2013-06-14 13:26:00,66.9,55.6,29.83,East,90,0.0,0.7,67,0.00,,,0.51,pywws,2013-06-14 17:26:00,
2013-06-14 13:31:00,67.8,58.1,29.83,North,0,0.7,1.6,71,0.00,,,0.51,pywws,2013-06-14 17:31:00,
2013-06-14 13:37:00,68.9,57.9,29.83,NE,45,0.0,0.7,68,0.00,,,0.51,pywws,2013-06-14 17:37:00,
2013-06-14 13:43:00,69.6,58.2,29.83,South,180,1.6,3.1,67,0.00,,,0.51,pywws,2013-06-14 17:43:00,
2013-06-14 13:48:00,68.9,57.1,29.82,East,90,0.0,0.7,66,0.00,,,0.51,pywws,2013-06-14 17:48:00,
2013-06-14 13:54:00,68.9,59.5,29.82,NE,45,0.0,1.6,72,0.00,,,0.51,pywws,2013-06-14 17:54:00,
2013-06-14 13:59:00,69.1,59.3,29.82,NE,45,0.0,0.7,71,0.00,,,0.51,pywws,2013-06-14 17:59:00,
2013-06-14 14:05:00,69.6,58.6,29.82,South,180,2.2,5.4,68,0.00,,,0.51,pywws,2013-06-14 18:05:00,
2013-06-14 14:11:00,69.3,56.6,29.82,North,0,0.0,0.7,64,0.00,,,0.51,pywws,2013-06-14 18:11:00,
2013-06-14 14:16:00,69.8,57.9,29.82,West,270,2.2,3.8,66,0.00,,,0.51,pywws,2013-06-14 18:16:00,
2013-06-14 14:22:00,70.0,57.7,29.82,NE,45,0.0,0.7,65,0.00,,,0.51,pywws,2013-06-14 18:22:00,
2013-06-14 14:27:00,69.8,57.5,29.82,NE,45,0.7,1.6,65,0.00,,,0.51,pywws,2013-06-14 18:27:00,
2013-06-14 14:33:00,69.6,59.4,29.82,North,0,0.7,2.2,70,0.00,,,0.51,pywws,2013-06-14 18:33:00,
2013-06-14 14:39:00,70.3,58.4,29.82,North,0,0.7,1.6,66,0.00,,,0.51,pywws,2013-06-14 18:39:00,
2013-06-14 14:44:00,70.5,58.2,29.82,NW,315,0.7,2.2,65,0.00,,,0.51,pywws,2013-06-14 18:44:00,
2013-06-14 14:50:00,71.1,57.8,29.81,West,270,1.6,3.1,63,0.00,,,0.51,pywws,2013-06-14 18:50:00,
2013-06-14 14:55:00,71.2,58.4,29.81,North,0,1.6,2.2,64,0.00,,,0.51,pywws,2013-06-14 18:55:00,
2013-06-14 15:01:00,71.1,58.7,29.81,North,0,0.7,2.2,65,0.00,,,0.51,pywws,2013-06-14 19:01:00,
2013-06-14 15:07:00,71.2,58.4,29.81,North,0,0.7,1.6,64,0.00,,,0.51,pywws,2013-06-14 19:07:00,
2013-06-14 15:12:00,71.1,57.8,29.81,North,0,0.7,2.2,63,0.00,,,0.51,pywws,2013-06-14 19:12:00,
2013-06-14 15:18:00,71.1,57.8,29.81,NE,45,1.6,2.2,63,0.00,,,0.51,pywws,2013-06-14 19:18:00,
2013-06-14 15:23:00,71.2,58.4,29.82,North,0,0.7,1.6,64,0.00,,,0.51,pywws,2013-06-14 19:23:00,
2013-06-14 15:29:00,72.0,58.2,29.81,NE,45,0.7,3.1,62,0.00,,,0.51,pywws,2013-06-14 19:29:00,
2013-06-14 15:35:00,72.0,59.1,29.81,North,0,0.0,1.6,64,0.00,,,0.51,pywws,2013-06-14 19:35:00,
2013-06-14 15:40:00,72.1,57.0,29.81,NE,45,0.7,1.6,59,0.00,,,0.51,pywws,2013-06-14 19:40:00,
2013-06-14 15:46:00,72.0,58.2,29.81,North,0,1.6,2.2,62,0.00,,,0.51,pywws,2013-06-14 19:46:00,
2013-06-14 15:51:00,72.3,58.1,29.81,North,0,2.2,5.4,61,0.00,,,0.51,pywws,2013-06-14 19:51:00,
2013-06-14 15:57:00,72.3,59.9,29.81,NE,45,1.6,2.2,65,0.00,,,0.51,pywws,2013-06-14 19:57:00,
2013-06-14 16:03:00,72.3,58.1,29.81,North,0,0.0,0.7,61,0.00,,,0.51,pywws,2013-06-14 20:03:00,
2013-06-14 16:08:00,72.5,59.2,29.81,NE,45,0.0,0.7,63,0.00,,,0.51,pywws,2013-06-14 20:08:00,
2013-06-14 16:14:00,72.0,56.8,29.81,North,0,0.7,1.6,59,0.00,,,0.51,pywws,2013-06-14 20:14:00,
2013-06-14 16:19:00,71.2,58.0,29.81,North,0,0.7,1.6,63,0.00,,,0.51,pywws,2013-06-14 20:19:00,
2013-06-14 16:25:00,70.5,56.9,29.81,North,0,0.7,1.6,62,0.00,,,0.51,pywws,2013-06-14 20:25:00,
2013-06-14 16:31:00,70.2,57.4,29.81,North,0,0.7,1.6,64,0.00,,,0.51,pywws,2013-06-14 20:31:00,
2013-06-14 16:36:00,70.3,58.0,29.81,NE,45,0.7,1.6,65,0.00,,,0.51,pywws,2013-06-14 20:36:00,
2013-06-14 16:42:00,70.7,58.3,29.81,NE,45,0.0,0.0,65,0.00,,,0.51,pywws,2013-06-14 20:42:00,
2013-06-14 16:47:00,71.2,59.7,29.82,NE,45,1.6,2.2,67,0.00,,,0.51,pywws,2013-06-14 20:47:00,
2013-06-14 16:53:00,71.1,58.7,29.82,NW,315,0.7,2.2,65,0.00,,,0.51,pywws,2013-06-14 20:53:00,
2013-06-14 16:59:00,71.6,58.8,29.82,North,0,0.0,0.7,64,0.00,,,0.51,pywws,2013-06-14 20:59:00,
2013-06-14 17:04:00,71.2,58.9,29.82,North,0,0.7,0.7,65,0.00,,,0.51,pywws,2013-06-14 21:04:00,
2013-06-14 17:10:00,70.5,59.0,29.82,North,0,0.7,1.6,67,0.00,,,0.51,pywws,2013-06-14 21:10:00,
2013-06-14 17:15:00,69.4,58.4,29.83,North,0,0.7,2.2,68,0.00,,,0.51,pywws,2013-06-14 21:15:00,
2013-06-14 17:21:00,68.7,58.1,29.83,North,0,0.7,2.2,69,0.00,,,0.51,pywws,2013-06-14 21:21:00,
2013-06-14 17:27:00,68.2,58.8,29.83,North,0,0.7,1.6,72,0.00,,,0.51,pywws,2013-06-14 21:27:00,
2013-06-14 17:32:00,67.6,59.0,29.84,North,0,0.7,1.6,74,0.00,,,0.51,pywws,2013-06-14 21:32:00,
2013-06-14 17:38:00,67.1,58.9,29.84,North,0,0.0,0.7,75,0.00,,,0.51,pywws,2013-06-14 21:38:00,
2013-06-14 17:43:00,67.1,58.9,29.84,North,0,0.7,1.6,75,0.00,,,0.51,pywws,2013-06-14 21:43:00,
2013-06-14 17:49:00,67.1,58.5,29.84,NE,45,0.0,0.7,74,0.00,,,0.51,pywws,2013-06-14 21:49:00,
2013-06-14 17:55:00,66.9,58.4,29.84,NE,45,0.0,0.0,74,0.00,,,0.51,pywws,2013-06-14 21:55:00,
2013-06-14 18:01:00,66.7,58.6,29.84,NE,45,0.0,0.7,75,0.00,,,0.51,pywws,2013-06-14 22:01:00,
2013-06-14 18:07:00,66.9,58.7,29.85,NE,45,0.0,0.7,75,0.00,,,0.51,pywws,2013-06-14 22:07:00,
2013-06-14 18:12:00,67.1,58.5,29.85,NE,45,0.0,1.6,74,0.00,,,0.51,pywws,2013-06-14 22:12:00,
2013-06-14 18:18:00,66.9,58.4,29.85,NW,315,0.7,1.6,74,0.00,,,0.51,pywws,2013-06-14 22:18:00,
2013-06-14 18:23:00,66.7,57.8,29.85,North,0,0.0,1.6,73,0.00,,,0.51,pywws,2013-06-14 22:23:00,
2013-06-14 18:29:00,66.6,58.0,29.85,North,0,0.0,0.0,74,0.00,,,0.51,pywws,2013-06-14 22:29:00,
2013-06-14 18:35:00,66.4,57.8,29.86,North,0,0.0,0.7,74,0.00,,,0.51,pywws,2013-06-14 22:35:00,
2013-06-14 18:40:00,66.6,56.1,29.86,North,0,0.0,0.0,69,0.00,,,0.51,pywws,2013-06-14 22:40:00,
2013-06-14 18:46:00,66.4,56.3,29.86,North,0,0.0,0.0,70,0.00,,,0.51,pywws,2013-06-14 22:46:00,
2013-06-14 18:51:00,66.0,57.1,29.86,NW,315,0.0,0.0,73,0.00,,,0.51,pywws,2013-06-14 22:51:00,
2013-06-14 18:57:00,65.8,57.3,29.86,North,0,0.0,0.0,74,0.00,,,0.51,pywws,2013-06-14 22:57:00,
2013-06-14 19:03:00,65.1,56.6,29.87,North,0,0.0,0.0,74,0.00,,,0.51,pywws,2013-06-14 23:03:00,
2013-06-14 19:08:00,64.6,56.5,29.86,North,0,0.0,0.0,75,0.00,,,0.51,pywws,2013-06-14 23:08:00,
2013-06-14 19:14:00,64.2,56.9,29.87,NW,315,0.0,0.7,77,0.00,,,0.51,pywws,2013-06-14 23:14:00,
2013-06-14 19:19:00,63.9,56.9,29.87,NW,315,0.0,0.7,78,0.00,,,0.51,pywws,2013-06-14 23:19:00,
2013-06-14 19:25:00,63.5,56.9,29.87,NW,315,0.0,0.7,79,0.00,,,0.51,pywws,2013-06-14 23:25:00,
2013-06-14 19:31:00,63.5,57.6,29.87,NW,315,0.0,0.0,81,0.00,,,0.51,pywws,2013-06-14 23:31:00,
2013-06-14 19:36:00,63.1,57.2,29.87,NW,315,0.0,0.0,81,0.00,,,0.51,pywws,2013-06-14 23:36:00,
2013-06-14 19:42:00,62.8,57.2,29.87,NW,315,0.0,0.0,82,0.00,,,0.51,pywws,2013-06-14 23:42:00,
2013-06-14 19:47:00,62.4,57.2,29.87,NW,315,0.0,0.7,83,0.00,,,0.51,pywws,2013-06-14 23:47:00,
2013-06-14 19:53:00,62.1,56.8,29.87,North,0,0.0,0.0,83,0.00,,,0.51,pywws,2013-06-14 23:53:00,
2013-06-14 19:59:00,61.5,56.6,29.87,North,0,0.0,0.0,84,0.00,,,0.51,pywws,2013-06-14 23:59:00,
2013-06-14 20:04:00,61.3,56.5,29.87,North,0,0.0,0.0,84,0.00,,,0.51,pywws,2013-06-15 00:04:00,
2013-06-14 20:10:00,61.2,56.3,29.88,North,0,0.0,0.0,84,0.00,,,0.51,pywws,2013-06-15 00:10:00,
2013-06-14 20:15:00,60.8,56.3,29.88,North,0,0.0,0.0,85,0.00,,,0.51,pywws,2013-06-15 00:15:00,
2013-06-14 20:21:00,60.4,56.2,29.88,North,0,0.0,0.7,86,0.00,,,0.51,pywws,2013-06-15 00:21:00,
2013-06-14 20:27:00,60.4,56.5,29.88,North,0,0.0,0.0,87,0.00,,,0.51,pywws,2013-06-15 00:27:00,
2013-06-14 20:32:00,60.3,56.7,29.88,North,0,0.0,0.0,88,0.00,,,0.51,pywws,2013-06-15 00:32:00,
2013-06-14 20:38:00,60.3,57.0,29.88,North,0,0.0,0.0,89,0.00,,,0.51,pywws,2013-06-15 00:38:00,
2013-06-14 20:43:00,60.3,57.0,29.88,East,90,0.0,0.0,89,0.00,,,0.51,pywws,2013-06-15 00:43:00,
2013-06-14 20:49:00,60.3,57.0,29.88,North,0,0.0,0.0,89,0.00,,,0.51,pywws,2013-06-15 00:49:00,
2013-06-14 20:55:00,60.1,56.8,29.89,North,0,0.0,0.0,89,0.00,,,0.51,pywws,2013-06-15 00:55:00,
2013-06-14 21:01:00,59.9,56.6,29.89,North,0,0.0,0.0,89,0.00,,,0.51,pywws,2013-06-15 01:01:00,
2013-06-14 21:07:00,59.7,56.5,29.89,North,0,0.0,0.0,89,0.00,,,0.51,pywws,2013-06-15 01:07:00,
2013-06-14 21:13:00,59.5,56.0,29.89,North,0,0.0,0.0,88,0.00,,,0.51,pywws,2013-06-15 01:13:00,
2013-06-14 21:19:00,59.4,55.8,29.89,North,0,0.0,0.0,88,0.00,,,0.51,pywws,2013-06-15 01:19:00,
2013-06-14 21:24:00,59.2,55.6,29.89,North,0,0.0,0.7,88,0.00,,,0.51,pywws,2013-06-15 01:24:00,
2013-06-14 21:31:00,58.8,55.9,29.90,North,0,0.0,0.0,90,0.00,,,0.51,pywws,2013-06-15 01:31:00,
2013-06-14 21:37:00,58.6,56.0,29.90,North,0,0.0,0.0,91,0.00,,,0.51,pywws,2013-06-15 01:37:00,
2013-06-14 21:43:00,58.5,55.8,29.90,North,0,0.0,0.0,91,0.00,,,0.51,pywws,2013-06-15 01:43:00,
2013-06-14 21:48:00,58.3,55.7,29.91,North,0,0.0,0.0,91,0.00,,,0.51,pywws,2013-06-15 01:48:00,
2013-06-14 21:54:00,58.3,56.0,29.91,North,0,0.0,0.0,92,0.00,,,0.51,pywws,2013-06-15 01:54:00,
2013-06-14 21:59:00,58.1,55.8,29.91,North,0,0.0,0.0,92,0.00,,,0.51,pywws,2013-06-15 01:59:00,
2013-06-14 22:06:00,57.9,55.6,29.91,North,0,0.0,0.0,92,0.00,,,0.51,pywws,2013-06-15 02:06:00,
2013-06-14 22:11:00,57.9,55.6,29.91,North,0,0.0,0.7,92,0.00,,,0.51,pywws,2013-06-15 02:11:00,
2013-06-14 22:17:00,57.7,55.7,29.91,North,0,0.7,1.6,93,0.00,,,0.51,pywws,2013-06-15 02:17:00,
2013-06-14 22:23:00,57.4,55.7,29.91,North,0,0.0,1.6,94,0.00,,,0.51,pywws,2013-06-15 02:23:00,
2013-06-14 22:28:00,57.2,55.5,29.92,North,0,0.7,1.6,94,0.00,,,0.51,pywws,2013-06-15 02:28:00,
2013-06-14 22:34:00,57.2,55.5,29.92,North,0,0.7,1.6,94,0.00,,,0.51,pywws,2013-06-15 02:34:00,
2013-06-14 22:39:00,57.0,55.9,29.92,North,0,0.0,1.6,96,0.00,,,0.51,pywws,2013-06-15 02:39:00,
2013-06-14 22:45:00,56.8,55.7,29.91,North,0,0.0,0.0,96,0.00,,,0.51,pywws,2013-06-15 02:45:00,
2013-06-14 22:51:00,56.8,55.7,29.92,North,0,0.0,0.0,96,0.00,,,0.51,pywws,2013-06-15 02:51:00,
2013-06-14 22:57:00,56.8,55.7,29.91,North,0,0.0,0.0,96,0.00,,,0.51,pywws,2013-06-15 02:57:00,
2013-06-14 23:03:00,56.8,55.7,29.92,North,0,0.0,0.7,96,0.00,,,0.51,pywws,2013-06-15 03:03:00,
2013-06-14 23:08:00,56.8,56.0,29.92,NW,315,0.0,1.6,97,0.00,,,0.51,pywws,2013-06-15 03:08:00,
2013-06-14 23:14:00,56.8,56.0,29.92,NW,315,0.0,0.0,97,0.00,,,0.51,pywws,2013-06-15 03:14:00,
2013-06-14 23:19:00,56.8,56.0,29.92,NW,315,0.0,0.0,97,0.00,,,0.51,pywws,2013-06-15 03:19:00,
2013-06-14 23:25:00,57.0,56.2,29.92,NW,315,0.0,0.7,97,0.00,,,0.51,pywws,2013-06-15 03:25:00,
2013-06-14 23:31:00,57.0,56.2,29.92,NW,315,0.0,0.0,97,0.00,,,0.51,pywws,2013-06-15 03:31:00,
2013-06-14 23:36:00,57.0,56.2,29.92,NW,315,0.0,0.0,97,0.00,,,0.51,pywws,2013-06-15 03:36:00,
2013-06-14 23:42:00,57.0,56.2,29.92,NW,315,0.0,0.0,97,0.00,,,0.51,pywws,2013-06-15 03:42:00,
2013-06-14 23:47:00,57.2,56.1,29.93,NW,315,0.0,0.0,96,0.00,,,0.51,pywws,2013-06-15 03:47:00,
2013-06-14 23:53:00,57.2,56.1,29.93,NW,315,0.0,0.0,96,0.00,,,0.51,pywws,2013-06-15 03:53:00,
2013-06-14 23:59:00,57.2,56.1,29.93,NW,315,0.0,0.0,96,0.00,,,0.51,pywws,2013-06-15 03:59:00,